»·PEaware :: AAY8448 KLAS-KCOS

AAY8448 :: KLAS-KCOS

FLIGHT INFORMATION

Flight Status: Arrived
Operator:
Allegiant Air
More flights by this operator :: More flights under this callsign
Pilot: Skye D. (10623)
Aircraft: BOEING 757-200
(B752)
More flights by this aircraft type
Origin: KLAS McCarran Intl
United States
Destination: KCOS City Of Colorado Springs Mun
United States
More flights between these airports :: More routes between these airports
Route: TRALR9 DVC J146 HBU DBRY3
File this flight plan on PilotEdge
Remarks:
Altitude:
(Current/Filed)
39,000ft
Speed:
(Current/Filed)
435kts
Departed: 23-Apr-18 11:55 AM
Arrived: 23-Apr-18 01:28 PM
Distance/Time
Traveled:
524nm/1:33
Distance/Time
To Go:
Arrived

Flight Plot

Page will automatically refresh every two minutes.

Flight plan parsing failed; only flown route is shown


Map Options




Map Legend


Flown Route
Filed Route
Departure Airport
Arrival Airport
Navaid (VOR, NDB)
Fix

Horizontal Profiles

Position Reports

Time Latitude Longitude Heading Altitude Ground
Speed
23-Apr-18 11:25 36.080268 -115.136092 61 2068ft 0kts
23-Apr-18 11:26 36.080268 -115.136092 61 2068ft 0kts
23-Apr-18 11:27 36.080268 -115.136092 61 2068ft 0kts
23-Apr-18 11:28 36.080268 -115.136092 61 2068ft 0kts
23-Apr-18 11:29 36.080268 -115.136092 61 2068ft 0kts
23-Apr-18 11:30 36.080268 -115.136092 61 2068ft 0kts
23-Apr-18 11:31 36.080268 -115.136092 61 2068ft 0kts
23-Apr-18 11:32 36.080268 -115.136092 61 2068ft 0kts
23-Apr-18 11:33 36.080268 -115.136092 61 2068ft 0kts
23-Apr-18 11:34 36.080268 -115.136092 61 2068ft 0kts
23-Apr-18 11:35 36.080268 -115.136092 61 2068ft 0kts
23-Apr-18 11:36 36.080268 -115.136092 61 2068ft 0kts
23-Apr-18 11:37 36.080268 -115.136092 61 2068ft 0kts
23-Apr-18 11:38 36.080268 -115.136092 61 2068ft 0kts
23-Apr-18 11:39 36.080268 -115.136092 61 2068ft 0kts
23-Apr-18 11:40 36.080096 -115.136634 79 2069ft 0kts
23-Apr-18 11:41 36.080055 -115.137311 119 2072ft 0kts
23-Apr-18 11:42 36.080050 -115.137300 128 2072ft 0kts
23-Apr-18 11:43 36.080050 -115.137300 128 2072ft 0kts
23-Apr-18 11:44 36.080050 -115.137300 128 2072ft 0kts
23-Apr-18 11:45 36.080050 -115.137300 128 2072ft 0kts
23-Apr-18 11:46 36.080050 -115.137300 128 2072ft 0kts
23-Apr-18 11:47 36.080050 -115.137300 128 2072ft 0kts
23-Apr-18 11:48 36.079179 -115.136251 137 2070ft 0kts
23-Apr-18 11:49 36.078275 -115.134844 97 2069ft 11kts
23-Apr-18 11:50 36.078292 -115.129735 89 2052ft 20kts
23-Apr-18 11:51 36.078261 -115.123930 89 2043ft 13kts
23-Apr-18 11:52 36.077457 -115.121575 129 2039ft 2kts
23-Apr-18 11:53 36.076446 -115.121436 239 2040ft 3kts
23-Apr-18 11:54 36.076413 -115.143713 270 2339ft 163kts
23-Apr-18 11:55 36.077802 -115.194931 275 4660ft 189kts
23-Apr-18 11:56 36.079885 -115.258297 261 6819ft 230kts
23-Apr-18 11:57 36.027237 -115.296065 187 9676ft 281kts
23-Apr-18 11:58 35.958323 -115.296148 163 11384ft 349kts
23-Apr-18 11:59 35.916543 -115.197909 78 14874ft 382kts
23-Apr-18 12:00 35.958630 -115.053043 68 18447ft 406kts
23-Apr-18 12:01 35.997977 -114.923017 68 19086ft 415kts
23-Apr-18 12:02 36.037704 -114.787734 69 21687ft 431kts
23-Apr-18 12:03 36.079542 -114.646027 68 23874ft 448kts
23-Apr-18 12:04 36.122278 -114.499202 67 25833ft 462kts
23-Apr-18 12:05 36.165931 -114.348169 68 27574ft 474kts
23-Apr-18 12:06 36.202525 -114.191479 79 29085ft 488kts
23-Apr-18 12:07 36.218155 -114.052652 80 30194ft 498kts
23-Apr-18 12:08 36.238004 -113.882285 79 31387ft 509kts
23-Apr-18 12:09 36.258657 -113.708692 79 32783ft 511kts
23-Apr-18 12:10 36.279784 -113.536427 80 34323ft 510kts
23-Apr-18 12:11 36.297943 -113.370027 79 35705ft 508kts
23-Apr-18 12:12 36.320552 -113.212601 67 36786ft 504kts
23-Apr-18 12:13 36.379419 -113.056423 61 37855ft 502kts
23-Apr-18 12:14 36.437904 -112.899240 61 38874ft 503kts
23-Apr-18 12:15 36.495568 -112.742718 61 39195ft 501kts
23-Apr-18 12:16 36.554807 -112.585926 60 39195ft 501kts
23-Apr-18 12:17 36.612778 -112.428525 61 39197ft 502kts
23-Apr-18 12:18 36.669073 -112.274353 61 39195ft 502kts
23-Apr-18 12:19 36.726065 -112.117143 62 39117ft 502kts
23-Apr-18 12:20 36.782686 -111.959512 62 39117ft 499kts
23-Apr-18 12:21 36.837959 -111.803132 65 39118ft 501kts
23-Apr-18 12:22 36.885101 -111.656896 63 39121ft 501kts
23-Apr-18 12:23 36.938397 -111.504692 62 39122ft 500kts
23-Apr-18 12:24 36.995129 -111.347379 63 39124ft 500kts
23-Apr-18 12:25 37.051140 -111.188430 63 39115ft 500kts
23-Apr-18 12:26 37.106201 -111.030404 63 39118ft 500kts
23-Apr-18 12:27 37.161196 -110.871637 63 39120ft 500kts
23-Apr-18 12:28 37.216161 -110.712129 63 39122ft 500kts
23-Apr-18 12:29 37.271525 -110.553264 63 39121ft 497kts
23-Apr-18 12:30 37.325834 -110.394714 63 39173ft 496kts
23-Apr-18 12:31 37.379784 -110.237037 63 39244ft 498kts
23-Apr-18 12:32 37.433490 -110.078163 64 39246ft 497kts
23-Apr-18 12:33 37.484181 -109.927071 64 39247ft 497kts
23-Apr-18 12:34 37.535021 -109.774740 64 39248ft 497kts
23-Apr-18 12:35 37.587600 -109.616367 64 39250ft 498kts
23-Apr-18 12:36 37.639838 -109.455523 64 39251ft 498kts
23-Apr-18 12:37 37.691698 -109.295783 65 39243ft 498kts
23-Apr-18 12:38 37.743655 -109.135676 64 39245ft 497kts
23-Apr-18 12:39 37.795299 -108.976548 65 39246ft 495kts
23-Apr-18 12:40 37.849699 -108.817492 63 39241ft 494kts
23-Apr-18 12:41 37.902716 -108.665545 63 39184ft 493kts
23-Apr-18 12:42 37.955393 -108.516376 63 39186ft 493kts
23-Apr-18 12:43 38.002963 -108.378980 63 39187ft 493kts
23-Apr-18 12:44 38.051545 -108.241579 63 39180ft 493kts
23-Apr-18 12:45 38.100110 -108.100590 64 39326ft 493kts
23-Apr-18 12:46 38.143817 -107.969241 64 39328ft 495kts
23-Apr-18 12:47 38.190893 -107.832178 64 39330ft 494kts
23-Apr-18 12:48 38.233567 -107.700485 65 39331ft 495kts
23-Apr-18 12:49 38.284889 -107.546320 65 39197ft 494kts
23-Apr-18 12:50 38.339134 -107.387919 64 39211ft 493kts
23-Apr-18 12:51 38.391362 -107.234536 65 39235ft 495kts
23-Apr-18 12:52 38.440720 -107.083872 70 39233ft 497kts
23-Apr-18 12:53 38.449538 -106.914031 94 39239ft 498kts
23-Apr-18 12:54 38.440676 -106.744561 94 38160ft 495kts
23-Apr-18 12:55 38.431877 -106.578727 94 36125ft 475kts
23-Apr-18 12:56 38.424316 -106.439910 94 34473ft 474kts
23-Apr-18 12:57 38.416984 -106.306164 94 32947ft 499kts
23-Apr-18 12:58 38.409219 -106.161461 94 31121ft 492kts
23-Apr-18 12:59 38.400096 -106.004255 94 29142ft 489kts
23-Apr-18 13:00 38.390369 -105.840777 93 26946ft 472kts
23-Apr-18 13:01 38.381711 -105.697708 93 24960ft 457kts
23-Apr-18 13:02 38.372243 -105.545192 93 22858ft 443kts
23-Apr-18 13:03 38.363110 -105.400740 93 20815ft 432kts
23-Apr-18 13:04 38.353899 -105.252273 93 18637ft 419kts
23-Apr-18 13:05 38.343518 -105.107828 93 16956ft 401kts
23-Apr-18 13:06 38.333572 -104.974250 93 16442ft 375kts
23-Apr-18 13:07 38.324333 -104.843165 93 14874ft 370kts
23-Apr-18 13:08 38.322337 -104.716793 67 13943ft 334kts
23-Apr-18 13:09 38.381594 -104.646549 6 13964ft 287kts
23-Apr-18 13:10 38.458611 -104.654984 355 13948ft 284kts
23-Apr-18 13:11 38.535997 -104.647949 15 13988ft 289kts
23-Apr-18 13:12 38.609846 -104.612299 17 13973ft 290kts
23-Apr-18 13:13 38.684325 -104.575816 17 14001ft 290kts
23-Apr-18 13:14 38.756408 -104.540485 17 14000ft 290kts
23-Apr-18 13:15 38.829862 -104.515652 358 13993ft 287kts
23-Apr-18 13:16 38.906575 -104.514387 357 12679ft 281kts
23-Apr-18 13:17 38.982232 -104.514292 357 10784ft 279kts
23-Apr-18 13:18 39.053555 -104.527811 307 9066ft 263kts
23-Apr-18 13:19 39.060273 -104.595118 267 9044ft 202kts
23-Apr-18 13:20 39.050452 -104.648659 215 9055ft 201kts
23-Apr-18 13:21 39.004555 -104.679070 206 8983ft 193kts
23-Apr-18 13:22 38.954293 -104.684612 183 8973ft 195kts
23-Apr-18 13:23 38.909773 -104.685421 181 8073ft 152kts
23-Apr-18 13:24 38.876994 -104.685743 179 7380ft 136kts
23-Apr-18 13:25 38.843597 -104.685802 176 6759ft 137kts
23-Apr-18 13:26 38.808374 -104.685757 175 6189ft 112kts
23-Apr-18 13:27 38.795296 -104.685774 183 6130ft 28kts
23-Apr-18 13:28 38.791373 -104.687378 273 6134ft 9kts
23-Apr-18 13:29 38.794771 -104.687837 359 6135ft 19kts
23-Apr-18 13:30 38.799266 -104.687847 359 6147ft 19kts
23-Apr-18 13:31 38.802579 -104.688080 319 6167ft 8kts
23-Apr-18 13:32 38.802768 -104.693118 270 6155ft 26kts
23-Apr-18 13:33 38.802220 -104.697216 180 6135ft 9kts
23-Apr-18 13:34 38.800690 -104.698974 240 6130ft 9kts
23-Apr-18 13:35 38.799723 -104.700230 262 6124ft 2kts
23-Apr-18 13:36 38.799718 -104.700274 262 6124ft 0kts
23-Apr-18 13:37 38.799718 -104.700274 262 6124ft 0kts

Navigation Log

Ident Type
Flight plan parsing failed, navigation log unavailable